Time;durP1;ratioP1;P1;durP2;ratioP2;P2;SDS_P1;SDS_P2;PMS_P1;PMS_P2;Temp;Humidity;BMP_temperature;BMP_pressure;BME280_temperature;BME280_humidity;BME280_pressure;Samples;Min_cycle;Max_cycle;Signal;HPM_P1;HPM_P2
2021/05/16 00:00:42;;;;;;;2.50;2.30;;;;;;;;;;5096228;28;20024;-66
2021/05/16 00:03:08;;;;;;;2.33;2.13;;;;;;;;;;5095893;28;20020;-66
2021/05/16 00:05:34;;;;;;;2.88;2.13;;;;;;;;;;5096104;28;20028;-66
2021/05/16 00:08:00;;;;;;;2.03;1.83;;;;;;;;;;5095843;28;20385;-65
2021/05/16 00:10:26;;;;;;;2.17;1.98;;;;;;;;;;5095908;28;20028;-65
2021/05/16 00:12:52;;;;;;;2.40;2.20;;;;;;;;;;5096044;28;20107;-66
2021/05/16 00:15:19;;;;;;;2.58;2.38;;;;;;;;;;5094644;28;20367;-65
2021/05/16 00:17:46;;;;;;;2.42;2.22;;;;;;;;;;5094419;28;20088;-65
2021/05/16 00:20:13;;;;;;;2.92;2.72;;;;;;;;;;5095667;28;20470;-65
2021/05/16 00:22:39;;;;;;;2.92;2.72;;;;;;;;;;5094411;28;20059;-66
2021/05/16 00:25:07;;;;;;;3.33;2.88;;;;;;;;;;5095956;28;20067;-64
2021/05/16 00:27:34;;;;;;;2.70;2.50;;;;;;;;;;5094429;28;20404;-64
2021/05/16 00:30:00;;;;;;;4.70;2.35;;;;;;;;;;5094049;28;20028;-65
2021/05/16 00:32:25;;;;;;;2.67;2.47;;;;;;;;;;5095631;28;20035;-64
2021/05/16 00:34:51;;;;;;;2.25;2.08;;;;;;;;;;5093920;28;20134;-64
2021/05/16 00:37:18;;;;;;;2.80;2.60;;;;;;;;;;5094104;28;20028;-64
2021/05/16 00:39:43;;;;;;;2.35;2.25;;;;;;;;;;5093861;28;20062;-64
2021/05/16 00:42:10;;;;;;;2.72;2.58;;;;;;;;;;5094038;28;20024;-64
2021/05/16 00:44:35;;;;;;;2.83;2.72;;;;;;;;;;5095425;28;20047;-63
2021/05/16 00:47:01;;;;;;;3.40;3.10;;;;;;;;;;5093997;28;20470;-63
2021/05/16 00:49:26;;;;;;;3.30;3.10;;;;;;;;;;5094004;28;20050;-64
2021/05/16 00:51:52;;;;;;;3.65;3.33;;;;;;;;;;5095040;28;20023;-63
2021/05/16 00:54:18;;;;;;;3.42;3.17;;;;;;;;;;5094921;28;20062;-63
2021/05/16 00:56:44;;;;;;;3.30;3.08;;;;;;;;;;5093697;28;20016;-63
2021/05/16 00:59:10;;;;;;;2.53;2.33;;;;;;;;;;5093798;28;20028;-64
2021/05/16 01:01:35;;;;;;;2.63;2.53;;;;;;;;;;5093537;28;20473;-64
2021/05/16 01:04:02;;;;;;;2.45;2.25;;;;;;;;;;5093284;28;20032;-64
2021/05/16 01:06:27;;;;;;;2.60;2.28;;;;;;;;;;5076588;28;20016;-64
2021/05/16 01:08:57;;;;;;;2.25;2.15;;;;;;;;;;5093555;28;20331;-65
2021/05/16 01:11:27;;;;;;;2.00;1.90;;;;;;;;;;5094739;28;20466;-65
2021/05/16 01:13:53;;;;;;;2.35;2.20;;;;;;;;;;5094632;28;20031;-65
2021/05/16 01:16:18;;;;;;;2.22;2.13;;;;;;;;;;5094717;28;20043;-66
2021/05/16 01:18:46;;;;;;;2.20;2.10;;;;;;;;;;5094674;28;20032;-65
2021/05/16 01:21:17;;;;;;;2.75;2.10;;;;;;;;;;5093450;28;20124;-65
2021/05/16 01:23:48;;;;;;;2.47;2.28;;;;;;;;;;5094459;28;20039;-64
2021/05/16 01:26:24;;;;;;;2.50;2.30;;;;;;;;;;5093063;28;20024;-64
2021/05/16 01:28:50;;;;;;;2.67;2.47;;;;;;;;;;5093025;28;20462;-64
2021/05/16 01:31:16;;;;;;;2.38;2.28;;;;;;;;;;5094364;28;20426;-64
2021/05/16 01:33:42;;;;;;;2.33;2.13;;;;;;;;;;5094104;28;20063;-65
2021/05/16 01:36:07;;;;;;;2.17;2.08;;;;;;;;;;5092722;28;20422;-64
2021/05/16 01:38:33;;;;;;;2.67;2.03;;;;;;;;;;5092553;28;20059;-63
2021/05/16 01:40:58;;;;;;;2.70;2.20;;;;;;;;;;5092926;28;20073;-64
2021/05/16 01:43:32;;;;;;;2.42;1.98;;;;;;;;;;5076693;28;20393;-64
2021/05/16 01:45:57;;;;;;;2.33;2.08;;;;;;;;;;5094298;28;20070;-64
2021/05/16 01:48:23;;;;;;;2.10;2.00;;;;;;;;;;5093975;28;20024;-64
2021/05/16 01:50:49;;;;;;;2.47;2.35;;;;;;;;;;5094186;28;20374;-63
2021/05/16 01:53:15;;;;;;;2.28;2.17;;;;;;;;;;5092937;28;20031;-63
2021/05/16 01:55:40;;;;;;;2.38;2.15;;;;;;;;;;5093742;28;20039;-64
2021/05/16 01:58:06;;;;;;;1.90;1.80;;;;;;;;;;5092939;28;20023;-64
2021/05/16 02:00:39;;;;;;;1.92;1.83;;;;;;;;;;5092705;28;20062;-65
2021/05/16 02:03:11;;;;;;;2.00;1.90;;;;;;;;;;5092656;28;20107;-64
2021/05/16 02:05:41;;;;;;;2.30;2.15;;;;;;;;;;5093828;28;20378;-65
2021/05/16 02:08:06;;;;;;;2.22;2.13;;;;;;;;;;5092199;28;20031;-64
2021/05/16 02:10:34;;;;;;;2.45;2.33;;;;;;;;;;5092414;28;20089;-64
2021/05/16 02:13:07;;;;;;;2.33;2.15;;;;;;;;;;5092236;28;20032;-64
2021/05/16 02:15:33;;;;;;;2.10;1.90;;;;;;;;;;5092362;28;20032;-65
2021/05/16 02:18:00;;;;;;;2.22;2.03;;;;;;;;;;5092609;28;20023;-65
2021/05/16 02:20:27;;;;;;;1.98;1.83;;;;;;;;;;5092343;28;20405;-66
2021/05/16 02:22:53;;;;;;;1.92;1.77;;;;;;;;;;5093796;28;20020;-66
2021/05/16 02:25:20;;;;;;;2.13;1.92;;;;;;;;;;5093539;28;20039;-66
2021/05/16 02:27:47;;;;;;;2.45;2.25;;;;;;;;;;5092445;28;20052;-66
2021/05/16 02:30:13;;;;;;;2.13;2.03;;;;;;;;;;5092388;28;20071;-66
2021/05/16 02:32:40;;;;;;;2.10;1.85;;;;;;;;;;5092275;28;20077;-66
2021/05/16 02:35:09;;;;;;;2.00;1.90;;;;;;;;;;5091792;28;20528;-66
2021/05/16 02:37:48;;;;;;;2.08;1.90;;;;;;;;;;5092030;28;20031;-66
2021/05/16 02:40:14;;;;;;;1.90;1.80;;;;;;;;;;5093499;28;20036;-66
2021/05/16 02:42:41;;;;;;;1.98;1.88;;;;;;;;;;5093522;28;20395;-66
2021/05/16 02:45:10;;;;;;;2.22;2.00;;;;;;;;;;5091932;28;20024;-66
2021/05/16 02:47:36;;;;;;;2.28;2.10;;;;;;;;;;5092066;28;20016;-65
2021/05/16 02:50:02;;;;;;;2.30;2.10;;;;;;;;;;5093303;28;20165;-65
2021/05/16 02:52:44;;;;;;;2.17;1.95;;;;;;;;;;5081395;28;20111;-65
2021/05/16 02:55:12;;;;;;;2.30;2.10;;;;;;;;;;5095856;28;20032;-65
2021/05/16 02:57:37;;;;;;;1.95;1.85;;;;;;;;;;5097443;28;20027;-65
2021/05/16 03:00:04;;;;;;;2.38;2.28;;;;;;;;;;5096016;28;20043;-65
2021/05/16 03:02:29;;;;;;;2.03;1.92;;;;;;;;;;5096970;28;20471;-65
2021/05/16 03:04:55;;;;;;;2.17;2.00;;;;;;;;;;5095690;28;20031;-65
2021/05/16 03:07:21;;;;;;;2.28;2.08;;;;;;;;;;5096854;28;20028;-66
2021/05/16 03:09:47;;;;;;;2.47;2.28;;;;;;;;;;5095953;28;20040;-65
2021/05/16 03:12:13;;;;;;;2.35;2.22;;;;;;;;;;5097009;28;20066;-65
2021/05/16 03:14:38;;;;;;;2.63;2.42;;;;;;;;;;5096674;28;20111;-65
2021/05/16 03:17:05;;;;;;;2.25;2.15;;;;;;;;;;5096891;28;20012;-66
2021/05/16 03:19:30;;;;;;;2.53;2.40;;;;;;;;;;5097064;28;20407;-66
2021/05/16 03:21:59;;;;;;;2.67;2.45;;;;;;;;;;5095565;28;20016;-65
2021/05/16 03:24:25;;;;;;;2.53;2.33;;;;;;;;;;5095495;28;20028;-63
2021/05/16 03:26:50;;;;;;;2.90;2.70;;;;;;;;;;5095660;28;20020;-65
2021/05/16 03:29:16;;;;;;;2.17;2.08;;;;;;;;;;5096859;28;20032;-64
2021/05/16 03:31:41;;;;;;;2.42;1.90;;;;;;;;;;5095298;28;20020;-64
2021/05/16 03:34:07;;;;;;;2.13;2.03;;;;;;;;;;5096113;28;20048;-64
2021/05/16 03:36:33;;;;;;;2.13;2.03;;;;;;;;;;5096593;28;20082;-64
2021/05/16 03:38:58;;;;;;;2.35;2.25;;;;;;;;;;5096806;28;20035;-64
2021/05/16 03:41:24;;;;;;;2.63;2.42;;;;;;;;;;5096607;28;20400;-64
2021/05/16 03:43:50;;;;;;;2.30;2.20;;;;;;;;;;5095314;28;20062;-64
2021/05/16 03:46:15;;;;;;;2.10;2.00;;;;;;;;;;5096533;28;20382;-64
2021/05/16 03:48:41;;;;;;;3.85;2.13;;;;;;;;;;5096126;28;20056;-63
2021/05/16 03:51:06;;;;;;;2.60;2.50;;;;;;;;;;5096136;28;20489;-63
2021/05/16 03:53:32;;;;;;;2.40;2.28;;;;;;;;;;5096231;28;20032;-63
2021/05/16 03:55:57;;;;;;;5.07;2.58;;;;;;;;;;5095996;28;20016;-64
2021/05/16 03:58:23;;;;;;;2.60;2.35;;;;;;;;;;5096002;28;20039;-64
2021/05/16 04:00:49;;;;;;;2.50;2.25;;;;;;;;;;5095699;28;20020;-64
2021/05/16 04:03:15;;;;;;;2.92;2.58;;;;;;;;;;5096173;28;20028;-65
2021/05/16 04:05:40;;;;;;;2.17;2.05;;;;;;;;;;5096127;28;20103;-65
2021/05/16 04:08:06;;;;;;;2.63;2.42;;;;;;;;;;5096093;28;20397;-65
2021/05/16 04:10:32;;;;;;;3.38;2.50;;;;;;;;;;5096161;28;20020;-66
2021/05/16 04:12:58;;;;;;;2.65;2.45;;;;;;;;;;5095470;28;20039;-66
2021/05/16 04:15:24;;;;;;;2.88;2.35;;;;;;;;;;5094219;28;20020;-65
2021/05/16 04:17:51;;;;;;;3.03;2.63;;;;;;;;;;5094283;28;20073;-66
2021/05/16 04:20:16;;;;;;;2.95;2.50;;;;;;;;;;5095763;28;20009;-66
2021/05/16 04:22:42;;;;;;;2.85;2.65;;;;;;;;;;5095796;28;20367;-66
2021/05/16 04:25:08;;;;;;;2.75;2.55;;;;;;;;;;5095386;28;20099;-65
2021/05/16 04:27:33;;;;;;;2.78;2.58;;;;;;;;;;5095497;28;20433;-67
2021/05/16 04:29:59;;;;;;;2.83;2.33;;;;;;;;;;5095381;28;20023;-66
2021/05/16 04:32:24;;;;;;;2.90;2.60;;;;;;;;;;5095357;28;20024;-64
2021/05/16 04:34:50;;;;;;;3.08;2.55;;;;;;;;;;5093980;28;20032;-65
2021/05/16 04:37:15;;;;;;;3.05;2.05;;;;;;;;;;5095499;28;20077;-64
2021/05/16 04:39:41;;;;;;;2.80;2.60;;;;;;;;;;5095424;28;20420;-64
2021/05/16 04:42:07;;;;;;;2.45;2.25;;;;;;;;;;5095300;28;20093;-64
2021/05/16 04:44:32;;;;;;;2.42;2.28;;;;;;;;;;5095279;28;20481;-64
2021/05/16 04:46:58;;;;;;;3.42;2.33;;;;;;;;;;5095222;28;20058;-64
2021/05/16 04:49:23;;;;;;;2.60;2.40;;;;;;;;;;5093904;28;20018;-64
2021/05/16 04:51:49;;;;;;;2.95;2.75;;;;;;;;;;5094876;28;20115;-64
2021/05/16 04:54:15;;;;;;;2.33;2.13;;;;;;;;;;5094776;28;20422;-64
2021/05/16 04:56:41;;;;;;;3.63;2.38;;;;;;;;;;5093522;28;20386;-64
2021/05/16 04:59:06;;;;;;;3.67;2.30;;;;;;;;;;5095057;28;20028;-64
2021/05/16 05:01:32;;;;;;;3.33;3.03;;;;;;;;;;5094905;28;20024;-64
2021/05/16 05:03:58;;;;;;;2.75;2.30;;;;;;;;;;5095080;28;20065;-64
2021/05/16 05:06:23;;;;;;;2.72;2.45;;;;;;;;;;5094294;28;20035;-65
2021/05/16 05:08:49;;;;;;;2.80;2.60;;;;;;;;;;5094433;28;20102;-65
2021/05/16 05:11:15;;;;;;;2.40;2.20;;;;;;;;;;5094533;28;20023;-64
2021/05/16 05:13:40;;;;;;;2.17;1.98;;;;;;;;;;5094044;28;20023;-65
2021/05/16 05:16:06;;;;;;;2.88;2.35;;;;;;;;;;5094488;28;20028;-65
2021/05/16 05:18:32;;;;;;;2.50;2.30;;;;;;;;;;5094711;28;20016;-64
2021/05/16 05:21:01;;;;;;;3.47;2.58;;;;;;;;;;5093612;28;20024;-65
2021/05/16 05:23:27;;;;;;;3.75;2.70;;;;;;;;;;5093485;28;20020;-65
2021/05/16 05:25:56;;;;;;;3.13;2.92;;;;;;;;;;5094340;28;20114;-65
2021/05/16 05:28:21;;;;;;;5.43;3.03;;;;;;;;;;5093259;28;20016;-65
2021/05/16 05:30:52;;;;;;;3.38;3.17;;;;;;;;;;5094246;28;20128;-65
2021/05/16 05:33:19;;;;;;;3.28;3.00;;;;;;;;;;5094005;28;20028;-65
2021/05/16 05:35:45;;;;;;;3.83;2.97;;;;;;;;;;5094444;28;20386;-65
2021/05/16 05:38:10;;;;;;;3.17;2.92;;;;;;;;;;5094306;28;20024;-65
2021/05/16 05:40:36;;;;;;;3.30;3.08;;;;;;;;;;5093936;28;20049;-65
2021/05/16 05:43:02;;;;;;;2.67;2.47;;;;;;;;;;5092311;28;20024;-65
2021/05/16 05:45:27;;;;;;;2.83;2.60;;;;;;;;;;5093720;28;20428;-65
2021/05/16 05:47:54;;;;;;;2.80;2.53;;;;;;;;;;5093999;28;20036;-65
2021/05/16 05:50:20;;;;;;;2.45;2.25;;;;;;;;;;5093694;28;20020;-65
2021/05/16 05:52:46;;;;;;;2.60;2.40;;;;;;;;;;5093865;28;20374;-72
2021/05/16 05:55:11;;;;;;;2.80;2.60;;;;;;;;;;5093827;28;20012;-64
2021/05/16 05:57:37;;;;;;;2.70;2.50;;;;;;;;;;5093725;28;20059;-64
2021/05/16 06:00:04;;;;;;;1.90;1.80;;;;;;;;;;5093758;28;20024;-64
2021/05/16 06:02:31;;;;;;;2.00;1.90;;;;;;;;;;5094017;28;20043;-64
2021/05/16 06:04:56;;;;;;;1.88;1.77;;;;;;;;;;5093833;28;20020;-64
2021/05/16 06:07:22;;;;;;;2.20;2.10;;;;;;;;;;5093954;28;20023;-64
2021/05/16 06:09:47;;;;;;;1.90;1.58;;;;;;;;;;5093679;28;20092;-65
2021/05/16 06:12:14;;;;;;;1.42;1.33;;;;;;;;;;5093683;28;20123;-64
2021/05/16 06:14:40;;;;;;;1.50;1.40;;;;;;;;;;5093563;28;20027;-64
2021/05/16 06:17:05;;;;;;;1.95;1.60;;;;;;;;;;5093733;28;20024;-64
2021/05/16 06:19:31;;;;;;;1.95;1.70;;;;;;;;;;5093686;28;20012;-64
2021/05/16 06:21:57;;;;;;;1.90;1.80;;;;;;;;;;5093522;28;20024;-64
2021/05/16 06:24:22;;;;;;;2.80;2.60;;;;;;;;;;5093320;28;20047;-64
2021/05/16 06:26:48;;;;;;;2.45;2.25;;;;;;;;;;5095621;28;20021;-64
2021/05/16 06:29:14;;;;;;;1.60;1.40;;;;;;;;;;5097800;28;20024;-65
2021/05/16 06:31:40;;;;;;;2.78;1.85;;;;;;;;;;5097550;28;20028;-71
2021/05/16 06:34:06;;;;;;;1.85;1.70;;;;;;;;;;5097282;28;20040;-62
2021/05/16 06:36:32;;;;;;;1.85;1.67;;;;;;;;;;5097211;28;20032;-61
2021/05/16 06:38:57;;;;;;;1.60;1.50;;;;;;;;;;5097638;28;20028;-61
2021/05/16 06:41:23;;;;;;;2.95;1.77;;;;;;;;;;5097465;28;20110;-62
2021/05/16 06:43:50;;;;;;;3.10;2.17;;;;;;;;;;5097428;28;20095;-62
2021/05/16 06:46:15;;;;;;;3.17;2.28;;;;;;;;;;5095976;28;20096;-62
2021/05/16 06:48:41;;;;;;;4.40;2.35;;;;;;;;;;5097298;28;20466;-65
2021/05/16 06:51:06;;;;;;;3.75;2.30;;;;;;;;;;5096153;28;20031;-61
2021/05/16 06:53:33;;;;;;;4.53;2.03;;;;;;;;;;5097480;28;20028;-62
2021/05/16 06:55:59;;;;;;;6.05;2.85;;;;;;;;;;5097275;28;20032;-61
2021/05/16 06:58:25;;;;;;;6.63;2.60;;;;;;;;;;5097184;28;20027;-61
2021/05/16 07:00:51;;;;;;;4.63;2.35;;;;;;;;;;5097268;28;20031;-61
2021/05/16 07:03:16;;;;;;;17.67;7.35;;;;;;;;;;5097106;28;20012;-62
2021/05/16 07:05:42;;;;;;;24.45;10.98;;;;;;;;;;5097186;28;20035;-62
2021/05/16 07:08:07;;;;;;;11.55;4.80;;;;;;;;;;5096973;28;20027;-62
2021/05/16 07:10:33;;;;;;;3.25;2.47;;;;;;;;;;5097101;28;20035;-63
2021/05/16 07:12:59;;;;;;;4.97;3.38;;;;;;;;;;5097120;28;20028;-63
2021/05/16 07:15:25;;;;;;;5.97;3.25;;;;;;;;;;5096882;28;20477;-63
2021/05/16 07:17:50;;;;;;;8.25;3.47;;;;;;;;;;5094717;28;20201;-63
2021/05/16 07:20:16;;;;;;;7.90;2.30;;;;;;;;;;5096905;28;20028;-63
2021/05/16 07:22:41;;;;;;;1.50;1.20;;;;;;;;;;5096761;28;20518;-63
2021/05/16 07:25:08;;;;;;;1.15;1.05;;;;;;;;;;5095143;28;20028;-63
2021/05/16 07:27:34;;;;;;;1.80;1.55;;;;;;;;;;5095238;28;20478;-62
2021/05/16 07:30:00;;;;;;;2.05;1.67;;;;;;;;;;5096289;28;20036;-63
2021/05/16 07:32:25;;;;;;;5.55;3.85;;;;;;;;;;5095022;28;20027;-63
2021/05/16 07:34:51;;;;;;;5.07;3.90;;;;;;;;;;5095853;28;20043;-62
2021/05/16 07:37:16;;;;;;;4.35;3.83;;;;;;;;;;5095633;28;20020;-63
2021/05/16 07:39:42;;;;;;;4.15;2.85;;;;;;;;;;5096126;28;20028;-63
2021/05/16 07:42:07;;;;;;;4.63;3.17;;;;;;;;;;5095894;28;20016;-63
2021/05/16 07:44:33;;;;;;;2.83;2.00;;;;;;;;;;5095921;28;20040;-62
2021/05/16 07:46:58;;;;;;;3.05;1.85;;;;;;;;;;5095876;28;20462;-63
2021/05/16 07:49:24;;;;;;;4.22;2.00;;;;;;;;;;5095813;28;20024;-63
2021/05/16 07:51:49;;;;;;;2.85;2.03;;;;;;;;;;5095833;28;20378;-62
2021/05/16 07:54:15;;;;;;;3.58;1.70;;;;;;;;;;5095741;28;20052;-63
2021/05/16 07:56:40;;;;;;;1.65;1.55;;;;;;;;;;5095769;28;20004;-62
2021/05/16 07:59:06;;;;;;;2.30;1.90;;;;;;;;;;5095709;28;20028;-62
2021/05/16 08:01:31;;;;;;;2.10;1.50;;;;;;;;;;5077584;28;20439;-63
2021/05/16 08:03:57;;;;;;;1.83;1.30;;;;;;;;;;5095684;28;20020;-62
2021/05/16 08:06:23;;;;;;;1.75;1.63;;;;;;;;;;5077538;28;20020;-62
2021/05/16 08:08:48;;;;;;;1.48;1.38;;;;;;;;;;5095572;28;20028;-63
2021/05/16 08:11:14;;;;;;;2.13;1.65;;;;;;;;;;5095452;28;20058;-62
2021/05/16 08:13:39;;;;;;;2.95;1.88;;;;;;;;;;5095376;28;20028;-63
2021/05/16 08:16:05;;;;;;;2.05;1.85;;;;;;;;;;5095244;28;20069;-63
2021/05/16 08:18:30;;;;;;;1.73;1.63;;;;;;;;;;5095338;28;20032;-62
2021/05/16 08:20:56;;;;;;;2.97;1.38;;;;;;;;;;5095181;28;20059;-62
2021/05/16 08:23:21;;;;;;;2.55;1.55;;;;;;;;;;5095312;28;20051;-62
2021/05/16 08:25:47;;;;;;;1.42;1.33;;;;;;;;;;5094092;28;20019;-62
2021/05/16 08:28:13;;;;;;;1.65;1.55;;;;;;;;;;5094035;28;20061;-62
2021/05/16 08:30:38;;;;;;;1.50;1.40;;;;;;;;;;5095156;28;20020;-62
2021/05/16 08:33:04;;;;;;;1.17;1.02;;;;;;;;;;5093933;28;20469;-62
2021/05/16 08:35:30;;;;;;;1.88;1.40;;;;;;;;;;5094872;28;20085;-63
2021/05/16 08:37:55;;;;;;;1.52;0.98;;;;;;;;;;5094678;28;20028;-62
2021/05/16 08:40:21;;;;;;;1.40;1.10;;;;;;;;;;5094976;28;20093;-62
2021/05/16 08:42:46;;;;;;;1.10;1.10;;;;;;;;;;5094867;28;20077;-62
2021/05/16 08:45:13;;;;;;;1.58;1.20;;;;;;;;;;5094870;28;20024;-62
2021/05/16 08:47:40;;;;;;;5.20;2.25;;;;;;;;;;5093595;28;20066;-62
2021/05/16 08:50:07;;;;;;;1.42;1.10;;;;;;;;;;5093803;28;20496;-62
2021/05/16 08:52:32;;;;;;;2.28;1.30;;;;;;;;;;5093498;28;20028;-62
2021/05/16 08:54:58;;;;;;;1.30;1.20;;;;;;;;;;5094662;28;20051;-62
2021/05/16 08:57:23;;;;;;;1.27;1.00;;;;;;;;;;5093301;28;20024;-62
2021/05/16 09:00:08;;;;;;;1.30;1.10;;;;;;;;;;5093345;28;20102;-62
2021/05/16 09:02:34;;;;;;;0.90;0.90;;;;;;;;;;5094651;28;20045;-62
2021/05/16 09:05:00;;;;;;;1.20;1.10;;;;;;;;;;5094489;28;20106;-62
2021/05/16 09:07:29;;;;;;;1.23;1.02;;;;;;;;;;5094309;28;20028;-62
2021/05/16 09:09:54;;;;;;;1.08;1.08;;;;;;;;;;5093112;28;20098;-62
2021/05/16 09:12:22;;;;;;;0.90;0.85;;;;;;;;;;5094279;28;20023;-62
2021/05/16 09:14:57;;;;;;;1.30;1.20;;;;;;;;;;5094160;28;20103;-62
2021/05/16 09:17:30;;;;;;;1.02;0.90;;;;;;;;;;5094373;28;20074;-63
2021/05/16 09:19:57;;;;;;;0.65;0.65;;;;;;;;;;5094230;28;20027;-62
2021/05/16 09:22:29;;;;;;;1.23;0.85;;;;;;;;;;5094242;28;20512;-62
2021/05/16 09:25:25;;;;;;;0.85;0.85;;;;;;;;;;5093979;28;20397;-62
2021/05/16 09:27:55;;;;;;;1.00;1.00;;;;;;;;;;5084996;28;20048;-63
2021/05/16 09:30:20;;;;;;;1.58;0.93;;;;;;;;;;5093985;28;20028;-63
2021/05/16 09:32:51;;;;;;;0.95;0.90;;;;;;;;;;5093955;28;20028;-62
2021/05/16 09:35:17;;;;;;;0.98;0.88;;;;;;;;;;5093749;28;20139;-62
2021/05/16 09:37:55;;;;;;;1.42;1.17;;;;;;;;;;5092577;28;20027;-62
2021/05/16 09:40:22;;;;;;;1.23;0.90;;;;;;;;;;5093709;28;20117;-63
2021/05/16 09:43:04;;;;;;;1.00;0.90;;;;;;;;;;5093813;28;20024;-63
2021/05/16 09:45:40;;;;;;;0.93;0.70;;;;;;;;;;5093899;28;20031;-63
2021/05/16 09:48:38;;;;;;;0.90;0.90;;;;;;;;;;5093855;28;20028;-63
2021/05/16 09:51:10;;;;;;;1.27;1.17;;;;;;;;;;5085561;28;20409;-63
2021/05/16 09:53:49;;;;;;;1.30;0.82;;;;;;;;;;5093771;28;20070;-63
2021/05/16 09:56:22;;;;;;;0.68;0.68;;;;;;;;;;5093597;28;20367;-63
2021/05/16 09:58:48;;;;;;;1.17;1.08;;;;;;;;;;5093682;28;20028;-63
2021/05/16 10:01:16;;;;;;;0.90;0.90;;;;;;;;;;5075349;28;20466;-63
2021/05/16 10:03:42;;;;;;;0.82;0.82;;;;;;;;;;5093642;28;20024;-63
2021/05/16 10:06:07;;;;;;;0.80;0.80;;;;;;;;;;5093519;28;20478;-63
2021/05/16 10:08:33;;;;;;;0.60;0.60;;;;;;;;;;5093423;28;20036;-62
2021/05/16 10:10:59;;;;;;;0.85;0.75;;;;;;;;;;5093381;28;20111;-63
2021/05/16 10:13:26;;;;;;;0.70;0.70;;;;;;;;;;5093397;28;20077;-63
2021/05/16 10:15:53;;;;;;;0.73;0.73;;;;;;;;;;5093380;28;20043;-63
2021/05/16 10:18:19;;;;;;;0.70;0.70;;;;;;;;;;5092073;28;20371;-63
2021/05/16 10:20:45;;;;;;;0.60;0.60;;;;;;;;;;5093154;28;20013;-63
2021/05/16 10:23:11;;;;;;;0.60;0.60;;;;;;;;;;5093277;28;20032;-63
2021/05/16 10:25:44;;;;;;;0.68;0.68;;;;;;;;;;5093750;28;20024;-63
2021/05/16 10:28:15;;;;;;;1.55;0.70;;;;;;;;;;5091905;28;20032;-63
2021/05/16 10:30:58;;;;;;;0.57;0.57;;;;;;;;;;5093195;28;20035;-63
2021/05/16 10:33:34;;;;;;;0.57;0.52;;;;;;;;;;5093104;28;20455;-63
2021/05/16 10:36:00;;;;;;;0.70;0.70;;;;;;;;;;5093362;28;20028;-63
2021/05/16 10:38:40;;;;;;;0.60;0.60;;;;;;;;;;5093097;28;20039;-63
2021/05/16 10:41:18;;;;;;;0.50;0.50;;;;;;;;;;5093248;28;20031;-63
2021/05/16 10:43:44;;;;;;;0.80;0.55;;;;;;;;;;5093047;28;20521;-63
2021/05/16 10:46:27;;;;;;;0.52;0.50;;;;;;;;;;5093047;28;20081;-63
2021/05/16 10:49:13;;;;;;;0.57;0.57;;;;;;;;;;5091791;28;20401;-63
2021/05/16 10:51:39;;;;;;;0.60;0.60;;;;;;;;;;5092945;28;20166;-63
2021/05/16 10:54:24;;;;;;;0.65;0.60;;;;;;;;;;5093103;28;20103;-63
2021/05/16 10:57:25;;;;;;;0.70;0.70;;;;;;;;;;5093039;28;20032;-63
2021/05/16 10:59:51;;;;;;;0.98;0.88;;;;;;;;;;5070315;28;20036;-63
2021/05/16 11:02:35;;;;;;;0.70;0.70;;;;;;;;;;5092779;28;20118;-63
2021/05/16 11:05:01;;;;;;;0.70;0.70;;;;;;;;;;5092855;28;20069;-63
2021/05/16 11:07:33;;;;;;;0.65;0.65;;;;;;;;;;5092932;28;20020;-63
2021/05/16 11:10:17;;;;;;;0.60;0.60;;;;;;;;;;5092879;28;20016;-63
2021/05/16 11:12:43;;;;;;;0.63;0.63;;;;;;;;;;5094510;28;20028;-63
2021/05/16 11:15:17;;;;;;;0.70;0.70;;;;;;;;;;5096370;28;20028;-63
2021/05/16 11:17:43;;;;;;;1.73;0.60;;;;;;;;;;5096072;28;20028;-63
2021/05/16 11:20:11;;;;;;;0.75;0.75;;;;;;;;;;5096546;28;20466;-63
2021/05/16 11:22:40;;;;;;;0.88;0.70;;;;;;;;;;5095231;28;20027;-63
2021/05/16 11:25:08;;;;;;;0.85;0.80;;;;;;;;;;5096495;28;20032;-63
2021/05/16 11:27:34;;;;;;;0.70;0.60;;;;;;;;;;5096505;28;20390;-63
2021/05/16 11:30:04;;;;;;;1.80;0.60;;;;;;;;;;5096324;28;20031;-63
2021/05/16 11:32:32;;;;;;;2.50;0.80;;;;;;;;;;5096366;28;20032;-63
2021/05/16 11:35:05;;;;;;;0.55;0.55;;;;;;;;;;5094662;28;20074;-63
2021/05/16 11:37:31;;;;;;;1.20;1.10;;;;;;;;;;5096122;28;20024;-63
2021/05/16 11:40:17;;;;;;;0.98;0.90;;;;;;;;;;5096158;28;20378;-63
2021/05/16 11:42:42;;;;;;;0.57;0.57;;;;;;;;;;5095845;28;20398;-63
2021/05/16 11:45:09;;;;;;;1.13;0.88;;;;;;;;;;5094690;28;20027;-63
2021/05/16 11:47:41;;;;;;;1.15;0.88;;;;;;;;;;5094722;28;20424;-63
2021/05/16 11:50:08;;;;;;;1.00;0.95;;;;;;;;;;5095974;28;20032;-63
2021/05/16 11:52:34;;;;;;;1.80;0.90;;;;;;;;;;5095945;28;20023;-63
2021/05/16 11:55:04;;;;;;;0.95;0.95;;;;;;;;;;5095829;28;20115;-63
2021/05/16 11:57:30;;;;;;;;;;;;;;;;;;5096301;28;20074;-63
2021/05/16 11:59:55;;;;;;;1.25;1.08;;;;;;;;;;5095826;28;20273;-63
2021/05/16 12:02:21;;;;;;;1.23;1.13;;;;;;;;;;5094398;28;20036;-63
2021/05/16 12:04:46;;;;;;;1.40;1.10;;;;;;;;;;5095598;28;20432;-63
2021/05/16 12:07:12;;;;;;;1.75;1.17;;;;;;;;;;5095498;28;20393;-63
2021/05/16 12:09:39;;;;;;;1.38;1.27;;;;;;;;;;5094481;28;20436;-63
2021/05/16 12:12:15;;;;;;;1.67;1.58;;;;;;;;;;5095582;28;20081;-63
2021/05/16 12:14:42;;;;;;;1.95;1.35;;;;;;;;;;5094167;28;20439;-63
2021/05/16 12:17:08;;;;;;;1.33;1.20;;;;;;;;;;5095625;28;20020;-63
2021/05/16 12:19:35;;;;;;;1.30;1.20;;;;;;;;;;5095257;28;20035;-63
2021/05/16 12:22:02;;;;;;;1.00;1.00;;;;;;;;;;5095384;28;20052;-63
2021/05/16 12:24:32;;;;;;;1.17;1.08;;;;;;;;;;5092957;28;20031;-63
2021/05/16 12:26:58;;;;;;;2.00;0.90;;;;;;;;;;5095313;28;20027;-63
2021/05/16 12:29:24;;;;;;;1.40;0.95;;;;;;;;;;5095242;28;20035;-63
2021/05/16 12:31:50;;;;;;;0.88;0.88;;;;;;;;;;5093980;28;20454;-63
2021/05/16 12:34:16;;;;;;;0.60;0.60;;;;;;;;;;5093380;28;20047;-63
2021/05/16 12:36:46;;;;;;;0.60;0.60;;;;;;;;;;5093814;28;20032;-63
2021/05/16 12:39:11;;;;;;;0.60;0.60;;;;;;;;;;5093731;28;20062;-62
2021/05/16 12:41:36;;;;;;;0.80;0.80;;;;;;;;;;5094874;28;20047;-62
2021/05/16 12:44:21;;;;;;;0.77;0.77;;;;;;;;;;5094849;28;20498;-63
2021/05/16 12:46:48;;;;;;;0.88;0.88;;;;;;;;;;5094915;28;20393;-63
2021/05/16 12:49:18;;;;;;;0.93;0.73;;;;;;;;;;5094698;28;20452;-62
2021/05/16 12:51:52;;;;;;;0.90;0.90;;;;;;;;;;5094815;28;20028;-63
2021/05/16 12:54:28;;;;;;;0.65;0.65;;;;;;;;;;5093457;28;20035;-63
2021/05/16 12:57:02;;;;;;;0.70;0.70;;;;;;;;;;5093551;28;20063;-63
2021/05/16 12:59:29;;;;;;;1.00;0.98;;;;;;;;;;5094702;28;20111;-63
2021/05/16 13:02:05;;;;;;;0.75;0.75;;;;;;;;;;5094618;28;20016;-63
2021/05/16 13:04:31;;;;;;;0.77;0.77;;;;;;;;;;5094546;28;20020;-63
2021/05/16 13:06:56;;;;;;;0.85;0.85;;;;;;;;;;5092843;28;20081;-63
2021/05/16 13:09:28;;;;;;;0.80;0.80;;;;;;;;;;5094506;28;20077;-63
2021/05/16 13:11:57;;;;;;;0.73;0.70;;;;;;;;;;5094360;28;20028;-63
2021/05/16 13:14:23;;;;;;;0.80;0.80;;;;;;;;;;5094490;28;20351;-63
2021/05/16 13:16:49;;;;;;;1.33;0.90;;;;;;;;;;5094209;28;20055;-63
2021/05/16 13:19:14;;;;;;;2.55;1.02;;;;;;;;;;5094171;28;20470;-63
2021/05/16 13:21:45;;;;;;;1.60;0.60;;;;;;;;;;5094115;28;20030;-63
2021/05/16 13:24:11;;;;;;;1.02;0.70;;;;;;;;;;5092900;28;20477;-63
2021/05/16 13:26:59;;;;;;;0.70;0.60;;;;;;;;;;5094041;28;20055;-63
2021/05/16 13:29:25;;;;;;;0.95;0.95;;;;;;;;;;5092840;28;20039;-63
2021/05/16 13:31:51;;;;;;;1.20;0.80;;;;;;;;;;5094016;28;20102;-63
2021/05/16 13:34:17;;;;;;;0.65;0.63;;;;;;;;;;5092329;28;20052;-63
2021/05/16 13:36:43;;;;;;;1.45;1.00;;;;;;;;;;5093588;28;20115;-63
2021/05/16 13:39:09;;;;;;;1.10;1.00;;;;;;;;;;5092581;28;20024;-62
2021/05/16 13:41:34;;;;;;;1.30;0.90;;;;;;;;;;5093890;28;20039;-62
2021/05/16 13:43:59;;;;;;;0.93;0.90;;;;;;;;;;5093807;28;20063;-63
2021/05/16 13:46:25;;;;;;;1.55;0.82;;;;;;;;;;5093912;28;20020;-63
2021/05/16 13:48:50;;;;;;;1.00;0.90;;;;;;;;;;5093691;28;20077;-63
2021/05/16 13:51:16;;;;;;;1.95;0.80;;;;;;;;;;5093760;28;20099;-63
2021/05/16 13:53:41;;;;;;;1.80;1.13;;;;;;;;;;5092289;28;20024;-62
2021/05/16 13:56:06;;;;;;;1.25;1.15;;;;;;;;;;5093428;28;20032;-63
2021/05/16 13:58:32;;;;;;;1.13;1.13;;;;;;;;;;5093533;28;20072;-62
2021/05/16 14:00:57;;;;;;;1.40;1.33;;;;;;;;;;5093660;28;20012;-63
2021/05/16 14:03:23;;;;;;;1.92;1.55;;;;;;;;;;5093109;28;20486;-62
2021/05/16 14:05:50;;;;;;;1.60;1.50;;;;;;;;;;5093490;28;20076;-62
2021/05/16 14:08:15;;;;;;;2.70;2.05;;;;;;;;;;5093460;28;20502;-63
2021/05/16 14:10:41;;;;;;;1.77;1.67;;;;;;;;;;5092147;28;20024;-63
2021/05/16 14:13:06;;;;;;;2.10;1.90;;;;;;;;;;5092226;28;20056;-63
2021/05/16 14:15:31;;;;;;;2.28;2.10;;;;;;;;;;5093132;28;20111;-62
2021/05/16 14:17:57;;;;;;;2.85;1.73;;;;;;;;;;5092986;28;20030;-63
2021/05/16 14:20:23;;;;;;;2.20;2.00;;;;;;;;;;5091835;28;20077;-63
2021/05/16 14:22:48;;;;;;;1.08;1.08;;;;;;;;;;5091658;28;20466;-63
2021/05/16 14:25:14;;;;;;;2.65;1.67;;;;;;;;;;5093512;28;20020;-63
2021/05/16 14:27:39;;;;;;;2.20;2.10;;;;;;;;;;5093447;28;20032;-63
2021/05/16 14:30:06;;;;;;;2.13;1.83;;;;;;;;;;5093662;28;20020;-63
2021/05/16 14:32:32;;;;;;;2.95;2.60;;;;;;;;;;5093318;28;20069;-62
2021/05/16 14:34:57;;;;;;;2.60;2.40;;;;;;;;;;5092855;28;20040;-63
2021/05/16 14:37:24;;;;;;;2.55;2.20;;;;;;;;;;5092629;28;20024;-62
2021/05/16 14:39:49;;;;;;;2.70;2.50;;;;;;;;;;5093349;28;20012;-62
2021/05/16 14:42:15;;;;;;;3.35;3.03;;;;;;;;;;5092077;28;20031;-62
2021/05/16 14:44:41;;;;;;;4.85;3.08;;;;;;;;;;5084866;28;20073;-62